createdAt,value
2023-02-24T00:01:40.040Z,98620.38
2023-02-24T00:04:09.077Z,98614.59
2023-02-24T00:06:38.917Z,98620.25
2023-02-24T00:09:08.623Z,98619.69
2023-02-24T00:11:45.302Z,98622.22
2023-02-24T00:14:16.141Z,98619.59
2023-02-24T00:16:44.760Z,98621.63
2023-02-24T00:19:17.583Z,98616.53
2023-02-24T00:21:45.486Z,98610.78
2023-02-24T00:24:12.419Z,98611.19
2023-02-24T00:26:39.020Z,98609.38
2023-02-24T00:29:08.506Z,98614.91
2023-02-24T00:31:37.156Z,98606.66
2023-02-24T00:34:03.789Z,98596.84
2023-02-24T00:36:33.876Z,98590.94
2023-02-24T00:39:03.216Z,98592.59
2023-02-24T00:41:31.574Z,98583.50
2023-02-24T00:44:09.746Z,98590.94
2023-02-24T00:46:40.019Z,98582.13
2023-02-24T00:49:10.734Z,98579.34
2023-02-24T00:51:42.069Z,98576.59
2023-02-24T00:54:15.151Z,98579.75
2023-02-24T00:56:43.589Z,98577.56
2023-02-24T00:59:11.272Z,98562.56
2023-02-24T01:01:38.420Z,98574.13
2023-02-24T01:04:06.594Z,98557.06
2023-02-24T01:06:34.429Z,98552.69
2023-02-24T01:09:01.320Z,98551.44
2023-02-24T01:11:51.270Z,98548.94
2023-02-24T01:14:20.259Z,98549.66
2023-02-24T01:16:50.686Z,98539.47
2023-02-24T01:19:18.667Z,98539.47
2023-02-24T01:21:46.345Z,98531.59
2023-02-24T01:24:15.682Z,98533.41
2023-02-24T01:26:42.959Z,98519.09
2023-02-24T01:29:12.468Z,98523.34
2023-02-24T01:31:42.890Z,98526.25
2023-02-24T01:34:11.074Z,98514.69
2023-02-24T01:36:39.717Z,98521.28
2023-02-24T01:39:11.146Z,98517.16
2023-02-24T01:41:44.009Z,98510.41
2023-02-24T01:44:33.856Z,98513.56
2023-02-24T01:47:04.125Z,98506.72
2023-02-24T01:49:37.867Z,98498.72
2023-02-24T01:52:09.024Z,98496.41
2023-02-24T01:54:41.814Z,98494.59
2023-02-24T01:57:09.873Z,98494.19
2023-02-24T01:59:37.216Z,98497.63
2023-02-24T02:02:07.227Z,98503.28
2023-02-24T02:04:44.026Z,98498.72
2023-02-24T02:07:13.890Z,98498.47
2023-02-24T02:09:44.080Z,98495.88
2023-02-24T02:12:11.276Z,98489.25
2023-02-24T02:14:43.373Z,98492.16
2023-02-24T02:17:44.273Z,98486.09
2023-02-24T02:20:27.297Z,98481.28
2023-02-24T02:23:42.110Z,98477.81
2023-02-24T02:26:58.162Z,98467.38
2023-02-24T02:29:41.342Z,98460.50
2023-02-24T02:32:52.477Z,98452.78
2023-02-24T02:35:32.826Z,98441.91
2023-02-24T02:38:07.377Z,98447.00
2023-02-24T02:40:46.025Z,98443.72
2023-02-24T02:43:26.019Z,98433.25
2023-02-24T02:45:58.440Z,98433.94
2023-02-24T02:48:31.320Z,98425.84
2023-02-24T02:51:08.326Z,98428.84
2023-02-24T02:53:56.303Z,98426.81
2023-02-24T02:56:33.755Z,98418.41
2023-02-24T02:59:01.183Z,98422.81
2023-02-24T03:01:30.824Z,98427.47
2023-02-24T03:04:01.913Z,98424.72
2023-02-24T03:06:31.686Z,98426.53
2023-02-24T03:09:11.600Z,98413.31
2023-02-24T03:11:39.666Z,98415.09
2023-02-24T03:14:12.327Z,98407.13
2023-02-24T03:16:40.547Z,98405.47
2023-02-24T03:19:09.293Z,98407.41
2023-02-24T03:21:41.200Z,98402.19
2023-02-24T03:24:08.206Z,98400.66
2023-02-24T03:26:52.465Z,98394.19
2023-02-24T03:30:01.785Z,98393.94
2023-02-24T03:32:33.736Z,98384.03
2023-02-24T03:35:17.210Z,98385.41
2023-02-24T03:37:44.440Z,98387.47
2023-02-24T03:40:14.768Z,98382.94
2023-02-24T03:42:44.160Z,98387.34
2023-02-24T03:45:11.618Z,98387.34
2023-02-24T03:47:41.067Z,98382.50
2023-02-24T03:50:14.123Z,98379.91
2023-02-24T03:52:55.635Z,98374.41
2023-02-24T03:55:42.027Z,98372.22
2023-02-24T03:58:21.529Z,98370.56
2023-02-24T04:01:51.352Z,98375.50
2023-02-24T04:04:46.431Z,98368.63
2023-02-24T04:07:16.212Z,98370.28
2023-02-24T04:10:17.385Z,98368.38
2023-02-24T04:13:07.632Z,98365.06
2023-02-24T04:15:39.916Z,98349.78
2023-02-24T04:18:11.734Z,98360.66
2023-02-24T04:20:40.130Z,98354.06
2023-02-24T04:23:11.429Z,98351.44
2023-02-24T04:25:39.838Z,98349.38
2023-02-24T04:28:10.344Z,98348.41
2023-02-24T04:30:41.225Z,98342.78
2023-02-24T04:33:08.125Z,98345.81
2023-02-24T04:35:34.788Z,98335.34
2023-02-24T04:38:01.748Z,98340.34
2023-02-24T04:40:28.368Z,98331.53
2023-02-24T04:42:55.039Z,98335.50
2023-02-24T04:45:27.680Z,98327.56
2023-02-24T04:48:01.289Z,98317.25
2023-02-24T04:50:35.095Z,98317.22
2023-02-24T04:53:07.322Z,98316.97
2023-02-24T04:55:40.354Z,98313.13
2023-02-24T04:58:19.566Z,98312.59
2023-02-24T05:00:53.123Z,98308.16
2023-02-24T05:03:21.353Z,98310.38
2023-02-24T05:06:00.390Z,98310.09
2023-02-24T05:08:28.300Z,98304.75
2023-02-24T05:10:56.994Z,98304.03
2023-02-24T05:13:28.283Z,98309.00
2023-02-24T05:16:00.646Z,98302.38
2023-02-24T05:18:30.163Z,98292.53
2023-02-24T05:21:16.093Z,98294.13
2023-02-24T05:23:45.585Z,98303.06
2023-02-24T05:26:17.724Z,98303.34
2023-02-24T05:28:50.145Z,98303.75
2023-02-24T05:31:20.395Z,98305.53
2023-02-24T05:33:49.700Z,98297.44
2023-02-24T05:36:18.171Z,98300.16
2023-02-24T05:38:46.245Z,98303.47
2023-02-24T05:41:18.025Z,98305.91
2023-02-24T05:43:55.823Z,98310.00
2023-02-24T05:46:28.515Z,98300.94
2023-02-24T05:48:59.198Z,98298.50
2023-02-24T05:51:35.440Z,98289.25
2023-02-24T05:54:04.843Z,98290.91
2023-02-24T05:56:32.982Z,98295.69
2023-02-24T05:59:04.631Z,98289.09
2023-02-24T06:01:41.691Z,98292.69
2023-02-24T06:04:09.869Z,98298.31
2023-02-24T06:06:41.378Z,98284.66
2023-02-24T06:09:11.119Z,98294.03
2023-02-24T06:11:40.814Z,98298.13
2023-02-24T06:14:08.680Z,98295.03
2023-02-24T06:16:37.162Z,98291.47
2023-02-24T06:19:05.348Z,98295.16
2023-02-24T06:21:32.359Z,98291.34
2023-02-24T06:24:00.942Z,98287.22
2023-02-24T06:26:30.111Z,98296.13
2023-02-24T06:28:58.853Z,98287.75
2023-02-24T06:31:27.060Z,98289.09
2023-02-24T06:33:53.918Z,98289.81
2023-02-24T06:36:21.554Z,98292.91
2023-02-24T06:38:49.995Z,98285.63
2023-02-24T06:41:16.721Z,98283.84
2023-02-24T06:43:45.147Z,98283.53
2023-02-24T06:46:13.802Z,98280.16
2023-02-24T06:48:40.826Z,98282.47
2023-02-24T06:51:16.953Z,98272.56
2023-02-24T06:53:44.272Z,98270.94
2023-02-24T06:56:15.763Z,98272.31
2023-02-24T06:58:53.596Z,98270.50
2023-02-24T07:01:25.906Z,98273.72
2023-02-24T07:04:22.887Z,98271.56
2023-02-24T07:06:53.150Z,98267.09
2023-02-24T07:09:23.335Z,98269.84
2023-02-24T07:11:54.129Z,98263.00
2023-02-24T07:14:22.394Z,98270.28
2023-02-24T07:16:54.809Z,98268.75
2023-02-24T07:19:28.018Z,98262.72
2023-02-24T07:22:00.573Z,98264.41
2023-02-24T07:24:33.804Z,98261.50
2023-02-24T07:27:12.356Z,98247.81
2023-02-24T07:29:39.914Z,98246.72
2023-02-24T07:32:09.464Z,98251.78
2023-02-24T07:34:40.816Z,98244.50
2023-02-24T07:37:08.975Z,98239.97
2023-02-24T07:39:37.254Z,98236.16
2023-02-24T07:42:04.333Z,98231.19
2023-02-24T07:44:31.077Z,98228.19
2023-02-24T07:46:59.786Z,98221.31
2023-02-24T07:49:30.384Z,98216.69
2023-02-24T07:51:58.287Z,98219.41
2023-02-24T07:54:27.992Z,98219.25
2023-02-24T07:56:57.260Z,98211.47
2023-02-24T07:59:29.220Z,98204.44
2023-02-24T08:01:56.792Z,98208.44
2023-02-24T08:04:30.563Z,98199.94
2023-02-24T08:07:00.214Z,98204.31
2023-02-24T08:10:04.700Z,98207.91
2023-02-24T08:12:31.619Z,98201.31
2023-02-24T08:15:00.397Z,98195.00
2023-02-24T08:17:27.828Z,98190.88
2023-02-24T08:20:15.887Z,98189.94
2023-02-24T08:22:52.356Z,98182.06
2023-02-24T08:25:25.526Z,98184.97
2023-02-24T08:28:12.493Z,98184.28
2023-02-24T08:30:45.925Z,98174.69
2023-02-24T08:33:19.627Z,98176.31
2023-02-24T08:35:51.860Z,98166.16
2023-02-24T08:38:25.274Z,98169.75
2023-02-24T08:40:55.220Z,98167.53
2023-02-24T08:43:30.878Z,98165.75
2023-02-24T08:46:18.984Z,98159.03
2023-02-24T08:48:48.627Z,98159.44
2023-02-24T08:51:22.908Z,98156.28
2023-02-24T08:53:55.398Z,98154.91
2023-02-24T08:56:26.082Z,98152.44
2023-02-24T08:58:58.136Z,98143.53
2023-02-24T09:01:34.966Z,98133.38
2023-02-24T09:04:10.562Z,98125.00
2023-02-24T09:06:48.927Z,98126.63
2023-02-24T09:09:17.793Z,98117.97
2023-02-24T09:12:02.667Z,98105.97
2023-02-24T09:14:36.728Z,98097.50
2023-02-24T09:17:06.729Z,98094.19
2023-02-24T09:19:56.905Z,98084.00
2023-02-24T09:22:32.205Z,98081.31
2023-02-24T09:25:21.571Z,98088.22
2023-02-24T09:27:56.263Z,98074.97
2023-02-24T09:30:36.108Z,98073.75
2023-02-24T09:33:06.965Z,98061.44
2023-02-24T09:35:37.092Z,98050.81
2023-02-24T09:38:08.091Z,98055.84
2023-02-24T09:40:49.030Z,98041.47
2023-02-24T09:43:28.048Z,98039.53
2023-02-24T09:46:02.088Z,98031.19
2023-02-24T09:48:43.979Z,98028.28
2023-02-24T09:51:22.263Z,98027.16
2023-02-24T09:53:52.991Z,98022.50
2023-02-24T09:56:31.220Z,98012.25
2023-02-24T09:59:10.495Z,98011.38
2023-02-24T10:02:02.577Z,98005.28
2023-02-24T10:05:07.718Z,98003.44
2023-02-24T10:07:38.691Z,98002.66
2023-02-24T10:10:29.840Z,97999.47
2023-02-24T10:13:17.185Z,97994.53
2023-02-24T10:15:58.807Z,97992.06
2023-02-24T10:18:42.229Z,97987.81
2023-02-24T10:21:49.929Z,97979.91
2023-02-24T10:24:29.556Z,97971.09
2023-02-24T10:27:08.482Z,97961.25
2023-02-24T10:30:05.037Z,97952.22
2023-02-24T10:32:59.211Z,97948.63
2023-02-24T10:35:33.960Z,97950.41
2023-02-24T10:38:08.080Z,97958.25
2023-02-24T10:40:47.095Z,97954.09
2023-02-24T10:43:19.104Z,97951.75
2023-02-24T10:45:47.225Z,97954.47
2023-02-24T10:48:40.523Z,97944.81
2023-02-24T10:51:12.263Z,97945.63
2023-02-24T10:53:39.228Z,97937.81
2023-02-24T10:56:41.658Z,97932.91
2023-02-24T10:59:41.240Z,97929.44
2023-02-24T11:02:30.092Z,97923.47
2023-02-24T11:05:24.010Z,97925.25
2023-02-24T11:07:54.198Z,97910.34
2023-02-24T11:10:26.608Z,97899.00
2023-02-24T11:13:13.525Z,97903.94
2023-02-24T11:16:11.027Z,97896.16
2023-02-24T11:18:39.397Z,97889.75
2023-02-24T11:21:09.682Z,97885.03
2023-02-24T11:23:43.364Z,97875.69
2023-02-24T11:26:23.376Z,97873.47
2023-02-24T11:29:04.178Z,97862.03
2023-02-24T11:32:01.008Z,97858.16
2023-02-24T11:34:53.525Z,97862.47
2023-02-24T11:37:38.221Z,97853.59
2023-02-24T11:40:19.996Z,97853.59
2023-02-24T11:42:56.561Z,97854.09
2023-02-24T11:45:49.765Z,97840.66
2023-02-24T11:48:38.145Z,97831.81
2023-02-24T11:51:19.871Z,97833.97
2023-02-24T11:53:56.061Z,97831.19
2023-02-24T11:56:44.223Z,97829.34
2023-02-24T11:59:38.524Z,97817.94
2023-02-24T12:03:04.456Z,97824.72
2023-02-24T12:05:37.355Z,97811.19
2023-02-24T12:08:11.939Z,97810.38
2023-02-24T12:10:41.800Z,97803.09
2023-02-24T12:13:43.069Z,97797.75
2023-02-24T12:16:18.706Z,97796.97
2023-02-24T12:18:49.359Z,97802.72
2023-02-24T12:21:24.709Z,97786.16
2023-02-24T12:23:53.963Z,97792.38
2023-02-24T12:26:24.990Z,97784.47
2023-02-24T12:29:43.179Z,97777.84
2023-02-24T12:32:46.265Z,97778.91
2023-02-24T12:35:40.672Z,97785.53
2023-02-24T12:41:59.074Z,97776.34
2023-02-24T12:44:31.600Z,97769.13
2023-02-24T12:47:04.366Z,97775.75
2023-02-24T12:50:19.405Z,97777.34
2023-02-24T12:52:54.319Z,97771.16
2023-02-24T12:55:28.245Z,97775.25
2023-02-24T12:58:01.236Z,97766.31
2023-02-24T13:00:44.122Z,97770.28
2023-02-24T13:03:16.902Z,97771.78
2023-02-24T13:05:50.107Z,97772.56
2023-02-24T13:08:32.420Z,97777.91
2023-02-24T13:11:21.554Z,97768.97
2023-02-24T13:13:54.321Z,97771.75
2023-02-24T13:16:29.797Z,97762.72
2023-02-24T13:19:22.612Z,97765.53
2023-02-24T13:22:05.724Z,97757.69
2023-02-24T13:24:33.027Z,97770.22
2023-02-24T13:27:39.103Z,97767.22
2023-02-24T13:30:12.231Z,97769.38
2023-02-24T13:32:41.303Z,97767.78
2023-02-24T13:35:37.123Z,97764.53
2023-02-24T13:38:42.441Z,97762.47
2023-02-24T13:41:41.210Z,97757.13
2023-02-24T13:44:24.738Z,97761.38
2023-02-24T13:47:17.446Z,97747.81
2023-02-24T13:56:39.367Z,97739.34
2023-02-24T13:59:27.332Z,97739.06
2023-02-24T14:02:17.386Z,97739.44
2023-02-24T14:04:51.344Z,97736.88
2023-02-24T14:07:27.812Z,97731.69
2023-02-24T14:10:20.303Z,97733.44
2023-02-24T14:12:49.803Z,97733.88
2023-02-24T14:15:22.050Z,97723.47
2023-02-24T14:18:04.454Z,97724.56
2023-02-24T14:20:33.318Z,97718.41
2023-02-24T14:23:00.948Z,97711.44
2023-02-24T14:25:33.607Z,97713.47
2023-02-24T14:28:00.437Z,97712.63
2023-02-24T14:30:38.607Z,97708.81
2023-02-24T14:33:07.560Z,97699.09
2023-02-24T14:35:42.059Z,97701.28
2023-02-24T14:38:37.495Z,97694.16
2023-02-24T14:41:19.190Z,97681.28
2023-02-24T14:43:46.088Z,97679.88
2023-02-24T14:46:12.740Z,97676.25
2023-02-24T14:48:39.535Z,97673.50
2023-02-24T14:51:21.032Z,97673.66
2023-02-24T14:53:54.043Z,97675.97
2023-02-24T14:56:22.309Z,97667.06
2023-02-24T14:58:54.805Z,97664.59
2023-02-24T15:01:40.181Z,97674.44
2023-02-24T15:04:13.168Z,97664.06
2023-02-24T15:06:42.308Z,97655.06
2023-02-24T15:09:24.468Z,97650.66
2023-02-24T15:11:53.441Z,97655.59
2023-02-24T15:14:28.267Z,97652.59
2023-02-24T15:17:00.615Z,97639.88
2023-02-24T15:19:46.001Z,97641.22
2023-02-24T15:22:20.946Z,97643.28
2023-02-24T15:24:47.887Z,97646.56
2023-02-24T15:27:27.181Z,97635.38
2023-02-24T15:30:06.524Z,97628.78
2023-02-24T15:32:36.655Z,97628.38
2023-02-24T15:35:04.695Z,97622.22
2023-02-24T15:37:42.149Z,97626.88
2023-02-24T15:40:20.939Z,97619.25
2023-02-24T15:42:56.548Z,97613.63
2023-02-24T15:45:33.146Z,97621.53
2023-02-24T15:48:04.833Z,97614.69
2023-02-24T15:50:32.158Z,97602.13
2023-02-24T15:53:01.388Z,97608.56
2023-02-24T15:55:32.991Z,97598.13
2023-02-24T15:58:01.989Z,97597.34
2023-02-24T16:00:29.816Z,97599.66
2023-02-24T16:02:56.868Z,97594.31
2023-02-24T16:05:23.711Z,97597.03
2023-02-24T16:07:50.851Z,97586.13
2023-02-24T16:10:23.734Z,97584.84
2023-02-24T16:12:53.889Z,97584.06
2023-02-24T16:15:24.270Z,97586.75
2023-02-24T16:17:51.633Z,97583.91
2023-02-24T16:20:31.603Z,97577.06
2023-02-24T16:22:59.497Z,97582.69
2023-02-24T16:25:26.909Z,97576.28
2023-02-24T16:27:57.457Z,97581.84
2023-02-24T16:30:30.804Z,97579.00
2023-02-24T16:32:59.199Z,97575.44
2023-02-24T16:35:26.696Z,97576.28
2023-02-24T16:37:53.452Z,97577.75
2023-02-24T16:40:23.905Z,97572.44
2023-02-24T16:42:52.198Z,97569.16
2023-02-24T16:45:20.422Z,97579.53
2023-02-24T16:47:48.988Z,97573.50
2023-02-24T16:50:24.370Z,97582.69
2023-02-24T16:52:51.031Z,97575.44
2023-02-24T16:55:18.207Z,97583.88
2023-02-24T16:57:44.966Z,97579.97
2023-02-24T17:00:13.772Z,97566.97
2023-02-24T17:02:42.134Z,97579.00
2023-02-24T17:05:33.770Z,97570.00
2023-02-24T17:08:00.362Z,97569.28
2023-02-24T17:10:27.683Z,97566.88
2023-02-24T17:12:54.269Z,97560.72
2023-02-24T17:15:27.680Z,97558.78
2023-02-24T17:17:54.319Z,97556.34
2023-02-24T17:20:22.042Z,97545.44
2023-02-24T17:22:49.036Z,97546.22
2023-02-24T17:25:17.746Z,97541.16
2023-02-24T17:27:44.513Z,97540.22
2023-02-24T17:30:16.136Z,97543.09
2023-02-24T17:32:42.838Z,97537.47
2023-02-24T17:35:09.975Z,97533.13
2023-02-24T17:37:36.911Z,97536.25
2023-02-24T17:40:06.416Z,97541.06
2023-02-24T17:42:36.760Z,97539.69
2023-02-24T17:45:05.412Z,97536.66
2023-02-24T17:47:33.176Z,97537.91
2023-02-24T17:50:00.548Z,97531.34
2023-02-24T17:52:27.639Z,97527.91
2023-02-24T17:54:54.270Z,97528.47
2023-02-24T17:57:21.047Z,97527.50
2023-02-24T17:59:47.697Z,97522.59
2023-02-24T18:02:15.603Z,97524.09
2023-02-24T18:04:42.740Z,97524.38
2023-02-24T18:07:11.240Z,97523.56
2023-02-24T18:09:38.380Z,97522.44
2023-02-24T18:12:05.340Z,97515.63
2023-02-24T18:14:31.933Z,97511.53
2023-02-24T18:17:01.730Z,97510.44
2023-02-24T18:19:30.534Z,97512.06
2023-02-24T18:21:57.114Z,97497.31
2023-02-24T18:24:23.815Z,97505.78
2023-02-24T18:26:50.550Z,97511.50
2023-02-24T18:29:17.586Z,97506.00
2023-02-24T18:31:44.510Z,97507.81
2023-02-24T18:34:11.420Z,97512.59
2023-02-24T18:36:38.252Z,97510.69
2023-02-24T18:39:05.452Z,97515.63
2023-02-24T18:41:32.155Z,97516.69
2023-02-24T18:43:59.389Z,97520.94
2023-02-24T18:46:26.931Z,97523.13
2023-02-24T18:48:53.771Z,97524.91
2023-02-24T18:51:22.275Z,97511.63
2023-02-24T18:53:51.486Z,97506.31
2023-02-24T18:56:24.613Z,97499.75
2023-02-24T18:58:52.911Z,97503.31
2023-02-24T19:01:47.724Z,97505.78
2023-02-24T19:04:14.382Z,97500.03
2023-02-24T19:06:42.392Z,97496.88
2023-02-24T19:09:11.124Z,97488.81
2023-02-24T19:11:40.138Z,97497.03
2023-02-24T19:14:07.418Z,97493.19
2023-02-24T19:16:34.579Z,97481.00
2023-02-24T19:19:01.291Z,97489.09
2023-02-24T19:21:29.824Z,97486.50
2023-02-24T19:23:56.643Z,97487.69
2023-02-24T19:26:25.945Z,97489.19
2023-02-24T19:28:53.477Z,97486.91
2023-02-24T19:31:23.214Z,97482.91
2023-02-24T19:33:54.226Z,97478.13
2023-02-24T19:36:21.418Z,97486.06
2023-02-24T19:38:48.169Z,97475.72
2023-02-24T19:41:14.780Z,97477.03
2023-02-24T19:43:44.000Z,97468.28
2023-02-24T19:46:12.615Z,97468.28
2023-02-24T19:48:40.588Z,97464.19
2023-02-24T19:51:19.842Z,97466.91
2023-02-24T19:53:46.676Z,97465.69
2023-02-24T19:56:14.022Z,97468.03
2023-02-24T19:58:40.645Z,97459.56
2023-02-24T20:01:12.373Z,97464.44
2023-02-24T20:03:40.866Z,97450.22
2023-02-24T20:06:17.695Z,97450.78
2023-02-24T20:08:44.460Z,97455.44
2023-02-24T20:11:11.164Z,97456.81
2023-02-24T20:13:37.819Z,97440.41
2023-02-24T20:16:09.140Z,97452.72
2023-02-24T20:18:35.851Z,97452.16
2023-02-24T20:21:02.551Z,97460.75
2023-02-24T20:23:29.696Z,97453.25
2023-02-24T20:26:01.183Z,97457.63
2023-02-24T20:28:28.688Z,97467.75
2023-02-24T20:30:57.668Z,97460.91
2023-02-24T20:33:24.932Z,97459.16
2023-02-24T20:35:52.216Z,97456.97
2023-02-24T20:38:19.014Z,97468.97
2023-02-24T20:40:45.679Z,97466.69
2023-02-24T20:43:12.327Z,97464.88
2023-02-24T20:45:41.026Z,97473.25
2023-02-24T20:48:09.013Z,97472.00
2023-02-24T20:50:36.156Z,97478.56
2023-02-24T20:53:04.588Z,97480.78
2023-02-24T20:55:31.478Z,97483.09
2023-02-24T20:57:58.241Z,97480.09
2023-02-24T21:00:25.418Z,97479.25
2023-02-24T21:02:52.249Z,97484.72
2023-02-24T21:05:25.707Z,97479.44
2023-02-24T21:07:53.237Z,97485.53
2023-02-24T21:10:23.126Z,97481.03
2023-02-24T21:12:50.774Z,97480.59
2023-02-24T21:15:17.456Z,97476.41
2023-02-24T21:17:44.112Z,97476.25
2023-02-24T21:20:11.824Z,97476.91
2023-02-24T21:22:39.537Z,97480.03
2023-02-24T21:25:13.290Z,97479.09
2023-02-24T21:27:40.233Z,97480.63
2023-02-24T21:30:07.885Z,97470.78
2023-02-24T21:32:35.216Z,97476.78
2023-02-24T21:35:02.424Z,97479.41
2023-02-24T21:37:34.828Z,97470.91
2023-02-24T21:40:01.684Z,97474.88
2023-02-24T21:42:28.264Z,97472.16
2023-02-24T21:45:02.523Z,97458.75
2023-02-24T21:47:32.350Z,97464.06
2023-02-24T21:49:58.887Z,97458.59
2023-02-24T21:52:25.553Z,97450.25
2023-02-24T21:54:53.129Z,97452.56
2023-02-24T21:57:19.808Z,97453.41
2023-02-24T21:59:46.587Z,97455.56
2023-02-24T22:02:15.720Z,97469.38
2023-02-24T22:04:43.542Z,97480.03
2023-02-24T22:07:10.731Z,97474.00
2023-02-24T22:09:37.523Z,97480.59
2023-02-24T22:12:05.255Z,97485.78
2023-02-24T22:14:31.919Z,97475.97
2023-02-24T22:16:59.093Z,97486.78
2023-02-24T22:19:25.685Z,97472.59
2023-02-24T22:21:52.429Z,97486.94
2023-02-24T22:24:19.700Z,97481.22
2023-02-24T22:26:46.442Z,97479.03
2023-02-24T22:29:13.074Z,97471.91
2023-02-24T22:31:44.179Z,97481.22
2023-02-24T22:34:11.134Z,97486.41
2023-02-24T22:36:37.958Z,97486.41
2023-02-24T22:39:05.415Z,97483.41
2023-02-24T22:41:34.322Z,97487.22
2023-02-24T22:44:02.279Z,97492.56
2023-02-24T22:46:32.249Z,97494.03
2023-02-24T22:48:59.471Z,97488.84
2023-02-24T22:51:26.628Z,97481.63
2023-02-24T22:53:54.582Z,97489.97
2023-02-24T22:56:24.705Z,97483.13
2023-02-24T22:58:51.689Z,97486.13
2023-02-24T23:01:22.372Z,97487.78
2023-02-24T23:03:49.118Z,97485.56
2023-02-24T23:06:18.618Z,97488.44
2023-02-24T23:08:47.555Z,97483.94
2023-02-24T23:11:20.082Z,97489.94
2023-02-24T23:13:48.944Z,97482.69
2023-02-24T23:16:18.692Z,97494.44
2023-02-24T23:18:50.954Z,97495.81
2023-02-24T23:21:20.024Z,97488.16
2023-02-24T23:23:47.347Z,97498.69
2023-02-24T23:26:14.403Z,97497.47
2023-02-24T23:28:41.290Z,97493.22
2023-02-24T23:31:08.070Z,97501.00
2023-02-24T23:33:34.711Z,97498.94
2023-02-24T23:36:06.091Z,97498.41
2023-02-24T23:38:33.904Z,97505.78
2023-02-24T23:41:01.054Z,97504.66
2023-02-24T23:43:27.745Z,97512.34
2023-02-24T23:45:54.355Z,97512.22
2023-02-24T23:48:20.950Z,97515.06
2023-02-24T23:50:47.623Z,97513.84
2023-02-24T23:53:14.228Z,97516.59
2023-02-24T23:55:40.991Z,97514.81
2023-02-24T23:58:08.083Z,97512.06
